Time;durP1;ratioP1;P1;durP2;ratioP2;P2;SDS_P1;SDS_P2;PMS_P1;PMS_P2;Temp;Humidity;BMP_temperature;BMP_pressure;BME280_temperature;BME280_humidity;BME280_pressure;Samples;Min_cycle;Max_cycle;Signal;HPM_P1;HPM_P2
2023/12/30 00:02:19;;;;;;;3.22;2.78;;;;;;;;;;5044828;28;20482;-72
2023/12/30 00:04:45;;;;;;;3.97;2.95;;;;;;;;;;5028862;28;20063;-70
2023/12/30 00:07:10;;;;;;;4.47;3.03;;;;;;;;;;5063791;28;20032;-67
2023/12/30 00:09:37;;;;;;;4.05;3.17;;;;;;;;;;5062263;28;20029;-70
2023/12/30 00:12:03;;;;;;;3.35;2.90;;;;;;;;;;5063757;28;20017;-67
2023/12/30 00:14:28;;;;;;;3.80;2.88;;;;;;;;;;5063506;28;20379;-67
2023/12/30 00:16:53;;;;;;;4.05;3.00;;;;;;;;;;5044045;28;20402;-67
2023/12/30 00:19:19;;;;;;;3.35;2.83;;;;;;;;;;5064106;28;20055;-72
2023/12/30 00:21:44;;;;;;;3.58;2.90;;;;;;;;;;5062842;28;20025;-73
2023/12/30 00:24:10;;;;;;;3.45;2.83;;;;;;;;;;5062552;28;20031;-73
2023/12/30 00:26:35;;;;;;;4.15;2.92;;;;;;;;;;5046008;28;20029;-72
2023/12/30 00:29:08;;;;;;;3.60;2.80;;;;;;;;;;5045290;28;20364;-73
2023/12/30 00:31:33;;;;;;;3.53;2.72;;;;;;;;;;5062013;28;20031;-72
2023/12/30 00:34:00;;;;;;;4.00;3.22;;;;;;;;;;5061995;28;20009;-73
2023/12/30 00:36:26;;;;;;;3.80;2.53;;;;;;;;;;5063080;28;20120;-70
2023/12/30 00:38:55;;;;;;;4.03;2.85;;;;;;;;;;5063857;28;20052;-70
2023/12/30 00:41:23;;;;;;;4.70;3.00;;;;;;;;;;5062114;28;20021;-73
2023/12/30 00:43:49;;;;;;;4.50;2.88;;;;;;;;;;5044526;28;20489;-74
2023/12/30 00:46:20;;;;;;;3.15;2.80;;;;;;;;;;5045832;28;20025;-73
2023/12/30 00:48:46;;;;;;;3.33;2.95;;;;;;;;;;5062759;28;20028;-74
2023/12/30 00:51:12;;;;;;;3.75;2.83;;;;;;;;;;5044404;28;20397;-74
2023/12/30 00:53:40;;;;;;;4.03;2.85;;;;;;;;;;5046294;28;20101;-74
2023/12/30 00:56:06;;;;;;;2.83;2.60;;;;;;;;;;5048521;28;20120;-74
2023/12/30 00:58:32;;;;;;;3.15;2.78;;;;;;;;;;5065970;28;20104;-75
2023/12/30 01:00:57;;;;;;;3.50;2.60;;;;;;;;;;5047763;28;20470;-74
2023/12/30 01:03:23;;;;;;;3.60;2.90;;;;;;;;;;5049453;28;20032;-74
2023/12/30 01:05:48;;;;;;;3.40;2.67;;;;;;;;;;5066738;28;20017;-74
2023/12/30 01:08:14;;;;;;;2.75;2.25;;;;;;;;;;5047486;28;20068;-73
2023/12/30 01:10:39;;;;;;;3.28;2.20;;;;;;;;;;5034591;28;20033;-74
2023/12/30 01:13:08;;;;;;;2.40;2.20;;;;;;;;;;5052934;28;20016;-75
2023/12/30 01:15:34;;;;;;;2.92;2.47;;;;;;;;;;5065791;28;20167;-75
2023/12/30 01:18:00;;;;;;;3.30;2.53;;;;;;;;;;5048488;28;20386;-74
2023/12/30 01:20:26;;;;;;;2.58;2.38;;;;;;;;;;5049350;28;20033;-74
2023/12/30 01:22:51;;;;;;;2.20;2.00;;;;;;;;;;5047309;28;20064;-73
2023/12/30 01:25:17;;;;;;;2.20;2.00;;;;;;;;;;5048775;28;20032;-73
2023/12/30 01:27:42;;;;;;;2.22;1.90;;;;;;;;;;5037960;28;20101;-73
2023/12/30 01:30:08;;;;;;;2.42;2.20;;;;;;;;;;5033573;28;20033;-71
2023/12/30 01:32:34;;;;;;;3.38;2.42;;;;;;;;;;5067026;28;20023;-72
2023/12/30 01:34:59;;;;;;;3.08;2.00;;;;;;;;;;5048143;28;20041;-72
2023/12/30 01:37:25;;;;;;;3.97;2.22;;;;;;;;;;5047155;28;20033;-73
2023/12/30 01:39:50;;;;;;;2.67;2.13;;;;;;;;;;5064803;28;20029;-73
2023/12/30 01:42:15;;;;;;;2.58;2.05;;;;;;;;;;5048836;28;20024;-73
2023/12/30 01:44:41;;;;;;;2.67;2.47;;;;;;;;;;5047935;28;20052;-72
2023/12/30 01:47:06;;;;;;;3.10;2.15;;;;;;;;;;5065088;28;20075;-72
2023/12/30 01:49:32;;;;;;;2.30;1.95;;;;;;;;;;5066895;28;20107;-71
2023/12/30 01:51:57;;;;;;;3.83;2.40;;;;;;;;;;5047480;28;20020;-71
2023/12/30 01:54:23;;;;;;;3.25;2.75;;;;;;;;;;5065596;28;20020;-71
2023/12/30 01:56:49;;;;;;;4.53;2.58;;;;;;;;;;5048652;28;20051;-71
2023/12/30 01:59:17;;;;;;;2.53;2.33;;;;;;;;;;5037825;28;20051;-71
2023/12/30 02:01:43;;;;;;;2.92;2.65;;;;;;;;;;5048023;28;20028;-71
2023/12/30 02:04:09;;;;;;;2.80;2.35;;;;;;;;;;5046458;28;20104;-72
2023/12/30 02:06:34;;;;;;;4.82;2.53;;;;;;;;;;5065594;28;20112;-72
2023/12/30 02:09:02;;;;;;;2.88;2.13;;;;;;;;;;5030944;28;20486;-72
2023/12/30 02:11:28;;;;;;;2.35;2.15;;;;;;;;;;5064558;28;20387;-72
2023/12/30 02:13:54;;;;;;;1.77;1.67;;;;;;;;;;5066532;28;20028;-68
2023/12/30 02:16:19;;;;;;;2.60;2.40;;;;;;;;;;5047237;28;20039;-71
2023/12/30 02:18:45;;;;;;;3.47;2.60;;;;;;;;;;5046735;28;20032;-71
2023/12/30 02:21:10;;;;;;;3.33;2.45;;;;;;;;;;5048569;28;20016;-71
2023/12/30 02:23:35;;;;;;;3.58;2.28;;;;;;;;;;5064538;28;20032;-71
2023/12/30 02:26:01;;;;;;;3.83;2.30;;;;;;;;;;5065041;28;20064;-67
2023/12/30 02:28:27;;;;;;;2.15;1.92;;;;;;;;;;5050685;23;20068;-71
2023/12/30 02:30:53;;;;;;;2.30;1.90;;;;;;;;;;5075659;22;20062;-68
2023/12/30 02:33:18;;;;;;;2.45;2.25;;;;;;;;;;5075417;28;20107;-72
2023/12/30 02:35:44;;;;;;;2.63;2.13;;;;;;;;;;5075317;28;20044;-72
2023/12/30 02:38:09;;;;;;;2.75;2.15;;;;;;;;;;5075385;28;20126;-72
2023/12/30 02:40:34;;;;;;;2.90;2.35;;;;;;;;;;5075194;28;20036;-72
2023/12/30 02:43:00;;;;;;;3.28;2.25;;;;;;;;;;5075241;28;20040;-72
2023/12/30 02:45:26;;;;;;;3.58;2.50;;;;;;;;;;5060376;23;20154;-71
2023/12/30 02:47:52;;;;;;;2.90;2.58;;;;;;;;;;5055403;28;20100;-71
2023/12/30 02:50:17;;;;;;;2.97;2.53;;;;;;;;;;5055055;28;20120;-71
2023/12/30 02:52:42;;;;;;;3.40;2.13;;;;;;;;;;5037157;28;20032;-71
2023/12/30 02:55:09;;;;;;;2.08;1.90;;;;;;;;;;5055017;28;20111;-71
2023/12/30 02:57:35;;;;;;;1.85;1.75;;;;;;;;;;5055196;28;20110;-71
2023/12/30 03:00:00;;;;;;;4.18;2.10;;;;;;;;;;5055150;28;20033;-71
2023/12/30 03:02:26;;;;;;;3.47;2.40;;;;;;;;;;5037338;28;20037;-71
2023/12/30 03:04:51;;;;;;;2.28;1.67;;;;;;;;;;5054737;28;20029;-71
2023/12/30 03:07:17;;;;;;;2.40;1.92;;;;;;;;;;5055052;28;20037;-71
2023/12/30 03:09:42;;;;;;;2.53;2.17;;;;;;;;;;5036807;28;20032;-71
2023/12/30 03:12:08;;;;;;;3.00;1.95;;;;;;;;;;5036193;28;20045;-71
2023/12/30 03:14:34;;;;;;;3.40;2.20;;;;;;;;;;5054907;28;20035;-71
2023/12/30 03:16:59;;;;;;;2.25;2.13;;;;;;;;;;5037046;28;20379;-71
2023/12/30 03:19:25;;;;;;;2.20;2.05;;;;;;;;;;5035853;28;20493;-71
2023/12/30 03:21:50;;;;;;;2.33;1.75;;;;;;;;;;5036644;28;20378;-71
2023/12/30 03:24:15;;;;;;;3.35;2.22;;;;;;;;;;5020111;28;20037;-72
2023/12/30 03:26:42;;;;;;;2.08;1.88;;;;;;;;;;5036709;28;20029;-73
2023/12/30 03:29:08;;;;;;;2.50;2.15;;;;;;;;;;5036519;28;20025;-70
2023/12/30 03:31:33;;;;;;;2.67;2.03;;;;;;;;;;5037305;28;20536;-70
2023/12/30 03:33:58;;;;;;;2.05;1.88;;;;;;;;;;5054252;28;20021;-71
2023/12/30 03:36:24;;;;;;;2.60;1.83;;;;;;;;;;5054522;28;20068;-71
2023/12/30 03:38:51;;;;;;;2.20;2.00;;;;;;;;;;5054152;28;20021;-71
2023/12/30 03:41:17;;;;;;;1.33;1.23;;;;;;;;;;5054408;28;20044;-70
2023/12/30 03:43:42;;;;;;;1.60;1.50;;;;;;;;;;5054138;28;20025;-70
2023/12/30 03:46:07;;;;;;;1.75;1.63;;;;;;;;;;5070410;28;20076;-70
2023/12/30 03:48:33;;;;;;;1.40;1.30;;;;;;;;;;5056059;28;20033;-70
2023/12/30 03:50:58;;;;;;;1.42;1.33;;;;;;;;;;5074016;28;20031;-70
2023/12/30 03:53:24;;;;;;;1.58;1.48;;;;;;;;;;5074195;28;20036;-70
2023/12/30 03:55:49;;;;;;;1.52;1.42;;;;;;;;;;5055887;28;20025;-70
2023/12/30 03:58:15;;;;;;;3.00;1.40;;;;;;;;;;5073869;28;20033;-70
2023/12/30 04:00:40;;;;;;;1.60;1.50;;;;;;;;;;5074135;28;20024;-71
2023/12/30 04:03:06;;;;;;;2.30;2.10;;;;;;;;;;5073836;28;20039;-70
2023/12/30 04:05:31;;;;;;;2.50;2.30;;;;;;;;;;5073717;28;20020;-70
2023/12/30 04:07:56;;;;;;;2.28;2.08;;;;;;;;;;5073791;28;20432;-70
2023/12/30 04:10:22;;;;;;;2.08;1.98;;;;;;;;;;5055811;28;20107;-71
2023/12/30 04:12:47;;;;;;;1.73;1.63;;;;;;;;;;5073952;28;20421;-71
2023/12/30 04:15:12;;;;;;;1.90;1.70;;;;;;;;;;5056874;28;20056;-71
2023/12/30 04:17:38;;;;;;;5.25;2.75;;;;;;;;;;5074212;28;20050;-71
2023/12/30 04:20:05;;;;;;;2.63;2.42;;;;;;;;;;5055665;28;20025;-70
2023/12/30 04:22:31;;;;;;;1.88;1.77;;;;;;;;;;5039094;28;20051;-71
2023/12/30 04:24:57;;;;;;;1.90;1.70;;;;;;;;;;5055515;28;20071;-70
2023/12/30 04:27:22;;;;;;;1.45;1.35;;;;;;;;;;5055574;28;20020;-70
2023/12/30 04:29:47;;;;;;;1.73;1.30;;;;;;;;;;5077014;28;20021;-71
2023/12/30 04:32:13;;;;;;;1.63;1.52;;;;;;;;;;5080193;28;20517;-71
2023/12/30 04:34:38;;;;;;;1.00;1.00;;;;;;;;;;5080117;28;20458;-71
2023/12/30 04:37:04;;;;;;;1.67;1.27;;;;;;;;;;5062659;28;20022;-69
2023/12/30 04:39:29;;;;;;;2.10;1.45;;;;;;;;;;5080096;28;20039;-70
2023/12/30 04:41:59;;;;;;;1.45;1.35;;;;;;;;;;5062111;28;20020;-71
2023/12/30 04:44:26;;;;;;;2.15;1.13;;;;;;;;;;5061911;28;20029;-71
2023/12/30 04:46:51;;;;;;;1.05;1.05;;;;;;;;;;5061927;28;20071;-71
2023/12/30 04:49:23;;;;;;;1.58;1.27;;;;;;;;;;5071884;23;20090;-73
2023/12/30 04:51:48;;;;;;;1.92;1.63;;;;;;;;;;5042959;23;20060;-74
2023/12/30 04:54:14;;;;;;;1.58;1.45;;;;;;;;;;5025749;28;20037;-74
2023/12/30 04:56:39;;;;;;;1.13;1.08;;;;;;;;;;5059926;28;20037;-75
2023/12/30 04:59:04;;;;;;;1.50;1.40;;;;;;;;;;5042002;28;20033;-75
2023/12/30 05:01:31;;;;;;;1.52;1.42;;;;;;;;;;5042087;28;20074;-75
2023/12/30 05:03:56;;;;;;;1.30;1.20;;;;;;;;;;5059884;28;20078;-75
2023/12/30 05:06:24;;;;;;;1.80;1.05;;;;;;;;;;5058550;28;20033;-72
2023/12/30 05:08:50;;;;;;;1.15;1.15;;;;;;;;;;5043044;28;20024;-72
2023/12/30 05:11:16;;;;;;;1.40;1.30;;;;;;;;;;5060130;28;20120;-72
2023/12/30 05:13:42;;;;;;;1.10;1.00;;;;;;;;;;5041901;28;20052;-71
2023/12/30 05:16:08;;;;;;;1.40;1.30;;;;;;;;;;5041888;28;20041;-72
2023/12/30 05:18:34;;;;;;;1.83;1.05;;;;;;;;;;5060028;28;20386;-72
2023/12/30 05:20:59;;;;;;;0.98;0.88;;;;;;;;;;5060053;28;20162;-72
2023/12/30 05:23:24;;;;;;;1.30;1.20;;;;;;;;;;5060247;28;20095;-72
2023/12/30 05:25:50;;;;;;;1.48;1.38;;;;;;;;;;5041748;28;20056;-72
2023/12/30 05:28:15;;;;;;;1.30;1.10;;;;;;;;;;5059915;28;20029;-72
2023/12/30 05:30:41;;;;;;;1.25;1.15;;;;;;;;;;5059950;28;20036;-72
2023/12/30 05:33:07;;;;;;;1.55;1.27;;;;;;;;;;5088825;22;20060;-74
2023/12/30 05:35:33;;;;;;;0.93;0.93;;;;;;;;;;5080006;28;20094;-73
2023/12/30 05:37:58;;;;;;;1.45;1.35;;;;;;;;;;5079595;28;20058;-73
2023/12/30 05:40:23;;;;;;;1.33;1.23;;;;;;;;;;5078744;28;20378;-73
2023/12/30 05:42:49;;;;;;;1.35;1.25;;;;;;;;;;5058047;28;20056;-73
2023/12/30 05:45:14;;;;;;;1.20;1.10;;;;;;;;;;5058306;28;20024;-73
2023/12/30 05:47:40;;;;;;;1.38;1.25;;;;;;;;;;5058734;28;20059;-73
2023/12/30 05:50:06;;;;;;;1.38;1.27;;;;;;;;;;5075000;28;20449;-73
2023/12/30 05:52:31;;;;;;;1.40;1.30;;;;;;;;;;5075357;28;20021;-73
2023/12/30 05:54:57;;;;;;;1.40;1.23;;;;;;;;;;5058358;28;20488;-73
2023/12/30 05:57:22;;;;;;;1.70;1.40;;;;;;;;;;5076401;28;20028;-73
2023/12/30 05:59:47;;;;;;;1.38;1.33;;;;;;;;;;5076682;28;20060;-73
2023/12/30 06:02:13;;;;;;;1.15;1.10;;;;;;;;;;5076347;28;20021;-72
2023/12/30 06:04:40;;;;;;;1.38;1.27;;;;;;;;;;5076026;28;20036;-72
2023/12/30 06:07:06;;;;;;;1.58;1.40;;;;;;;;;;5057975;28;20054;-73
2023/12/30 06:09:32;;;;;;;1.02;1.00;;;;;;;;;;5075929;28;20560;-73
2023/12/30 06:11:58;;;;;;;3.08;1.42;;;;;;;;;;5076439;28;20057;-72
2023/12/30 06:14:23;;;;;;;2.53;1.20;;;;;;;;;;5075853;28;20450;-72
2023/12/30 06:16:49;;;;;;;1.70;1.40;;;;;;;;;;5074515;28;20032;-72
2023/12/30 06:19:16;;;;;;;1.40;1.30;;;;;;;;;;5076311;28;20029;-72
2023/12/30 06:21:42;;;;;;;1.02;1.02;;;;;;;;;;5058298;28;20385;-72
2023/12/30 06:24:07;;;;;;;1.77;1.67;;;;;;;;;;5057644;28;20039;-73
2023/12/30 06:26:35;;;;;;;1.40;1.30;;;;;;;;;;5075523;28;20462;-73
2023/12/30 06:29:01;;;;;;;1.15;1.08;;;;;;;;;;5075783;28;20025;-73
2023/12/30 06:31:27;;;;;;;1.55;1.33;;;;;;;;;;5075813;28;20120;-73
2023/12/30 06:33:53;;;;;;;1.33;1.20;;;;;;;;;;5075696;28;20032;-73
2023/12/30 06:36:20;;;;;;;2.88;1.42;;;;;;;;;;5075624;28;20033;-72
2023/12/30 06:38:46;;;;;;;1.10;1.10;;;;;;;;;;5057535;28;20051;-72
2023/12/30 06:41:11;;;;;;;1.38;1.10;;;;;;;;;;5074117;28;20458;-73
2023/12/30 06:43:36;;;;;;;2.03;1.88;;;;;;;;;;5057434;28;20397;-73
2023/12/30 06:46:05;;;;;;;1.70;1.60;;;;;;;;;;5057774;28;20500;-73
2023/12/30 06:48:30;;;;;;;1.45;1.30;;;;;;;;;;5075385;28;20016;-73
2023/12/30 06:50:56;;;;;;;1.10;1.10;;;;;;;;;;5075082;28;20032;-73
2023/12/30 06:53:22;;;;;;;1.50;1.40;;;;;;;;;;5075180;28;20033;-72
2023/12/30 06:55:47;;;;;;;1.50;1.40;;;;;;;;;;5073830;28;20032;-72
2023/12/30 06:58:13;;;;;;;1.40;1.25;;;;;;;;;;5074814;28;20028;-77
2023/12/30 07:00:38;;;;;;;1.30;1.20;;;;;;;;;;5067087;23;20049;-71
2023/12/30 07:03:03;;;;;;;1.33;1.23;;;;;;;;;;5054856;28;20017;-71
2023/12/30 07:05:35;;;;;;;1.15;1.00;;;;;;;;;;5053567;28;20162;-73
2023/12/30 07:11:04;;;;;;;2.88;1.33;;;;;;;;;;5059957;23;20512;-73
2023/12/30 07:13:30;;;;;;;1.33;1.20;;;;;;;;;;5053419;28;20032;-73
2023/12/30 07:15:55;;;;;;;1.95;1.25;;;;;;;;;;5071074;28;20485;-73
2023/12/30 07:18:21;;;;;;;1.30;1.20;;;;;;;;;;5073001;28;20060;-73
2023/12/30 07:20:46;;;;;;;1.45;1.08;;;;;;;;;;5072309;28;20024;-73
2023/12/30 07:23:12;;;;;;;1.10;1.00;;;;;;;;;;5070923;28;20153;-74
2023/12/30 07:25:37;;;;;;;1.90;1.48;;;;;;;;;;5070955;28;20037;-73
2023/12/30 07:28:03;;;;;;;2.85;1.70;;;;;;;;;;5070846;28;20470;-73
2023/12/30 07:30:28;;;;;;;0.93;0.93;;;;;;;;;;5052838;28;20343;-73
2023/12/30 07:32:53;;;;;;;1.00;0.95;;;;;;;;;;5052845;28;20045;-72
2023/12/30 07:35:19;;;;;;;0.40;0.40;;;;;;;;;;5070668;28;20036;-74
2023/12/30 07:37:46;;;;;;;1.13;0.77;;;;;;;;;;5070919;28;20036;-72
2023/12/30 07:40:12;;;;;;;3.08;0.93;;;;;;;;;;5071056;28;20117;-72
2023/12/30 07:42:38;;;;;;;0.70;0.70;;;;;;;;;;5070840;28;20533;-72
2023/12/30 07:45:04;;;;;;;1.00;0.82;;;;;;;;;;5070336;28;20055;-73
2023/12/30 07:47:29;;;;;;;0.40;0.40;;;;;;;;;;5070678;28;20028;-73
2023/12/30 07:49:55;;;;;;;1.10;0.80;;;;;;;;;;5052553;28;20047;-72
2023/12/30 07:52:20;;;;;;;0.85;0.85;;;;;;;;;;5070618;28;20410;-73
2023/12/30 07:54:45;;;;;;;0.50;0.50;;;;;;;;;;5070497;28;20024;-73
2023/12/30 07:57:11;;;;;;;0.88;0.82;;;;;;;;;;5070351;28;20033;-72
2023/12/30 07:59:36;;;;;;;0.65;0.57;;;;;;;;;;5070889;28;20036;-72
2023/12/30 08:02:02;;;;;;;0.57;0.55;;;;;;;;;;5070457;28;20029;-72
2023/12/30 08:04:27;;;;;;;1.05;0.65;;;;;;;;;;5069960;28;20032;-72
2023/12/30 08:06:53;;;;;;;1.08;0.98;;;;;;;;;;5070012;28;20378;-73
2023/12/30 08:09:18;;;;;;;1.25;1.15;;;;;;;;;;5070235;28;20029;-72
2023/12/30 08:11:44;;;;;;;1.30;0.85;;;;;;;;;;5052126;28;20037;-73
2023/12/30 08:14:09;;;;;;;0.98;0.88;;;;;;;;;;5070429;28;20037;-72
2023/12/30 08:16:35;;;;;;;0.85;0.70;;;;;;;;;;5070010;28;20028;-72
2023/12/30 08:19:04;;;;;;;1.10;1.00;;;;;;;;;;5070794;28;20032;-73
2023/12/30 08:21:30;;;;;;;1.35;1.25;;;;;;;;;;5070452;28;20036;-72
2023/12/30 08:23:57;;;;;;;1.10;0.90;;;;;;;;;;5070469;28;20047;-72
2023/12/30 08:26:26;;;;;;;1.25;1.15;;;;;;;;;;5068538;28;20067;-72
2023/12/30 08:28:51;;;;;;;0.70;0.70;;;;;;;;;;5070709;28;20521;-74
2023/12/30 08:31:19;;;;;;;1.42;1.20;;;;;;;;;;5065163;28;20067;-74
2023/12/30 08:33:45;;;;;;;1.52;1.40;;;;;;;;;;5035352;28;20038;-72
2023/12/30 08:36:10;;;;;;;2.17;1.90;;;;;;;;;;5051250;28;20100;-72
2023/12/30 08:38:37;;;;;;;1.55;1.17;;;;;;;;;;5050909;28;20045;-72
2023/12/30 08:41:03;;;;;;;2.55;1.05;;;;;;;;;;5051114;28;20098;-73
2023/12/30 08:43:29;;;;;;;1.30;1.20;;;;;;;;;;5050786;28;20045;-72
2023/12/30 08:45:55;;;;;;;2.00;1.73;;;;;;;;;;5032133;28;20029;-72
2023/12/30 08:48:20;;;;;;;1.60;1.45;;;;;;;;;;5030603;28;20033;-72
2023/12/30 08:50:45;;;;;;;1.73;1.55;;;;;;;;;;5048428;28;20017;-72
2023/12/30 08:53:12;;;;;;;1.48;1.20;;;;;;;;;;5030179;28;20025;-72
2023/12/30 08:55:38;;;;;;;1.80;1.55;;;;;;;;;;5047846;28;20037;-72
2023/12/30 08:58:04;;;;;;;1.60;1.50;;;;;;;;;;5030442;28;20040;-72
2023/12/30 09:00:29;;;;;;;1.80;1.35;;;;;;;;;;5030835;28;20041;-72
2023/12/30 09:02:55;;;;;;;2.20;1.40;;;;;;;;;;5048907;28;20048;-72
2023/12/30 09:05:21;;;;;;;1.02;0.95;;;;;;;;;;5013748;28;20040;-72
2023/12/30 09:07:48;;;;;;;2.40;1.00;;;;;;;;;;5031895;28;20387;-72
2023/12/30 09:10:17;;;;;;;1.58;1.48;;;;;;;;;;5050055;28;20045;-72
2023/12/30 09:12:42;;;;;;;2.20;1.40;;;;;;;;;;5051101;28;20501;-72
2023/12/30 09:15:08;;;;;;;3.28;1.45;;;;;;;;;;5031503;28;20037;-72
2023/12/30 09:17:33;;;;;;;1.88;1.38;;;;;;;;;;5034154;28;20039;-72
2023/12/30 09:19:58;;;;;;;2.42;1.45;;;;;;;;;;5019474;28;20041;-72
2023/12/30 09:22:24;;;;;;;1.10;1.00;;;;;;;;;;5037210;28;20052;-72
2023/12/30 09:24:49;;;;;;;1.20;0.65;;;;;;;;;;5036607;28;20041;-72
2023/12/30 09:27:15;;;;;;;1.63;1.20;;;;;;;;;;5035983;28;20029;-72
2023/12/30 09:29:40;;;;;;;2.08;1.80;;;;;;;;;;5054249;28;20044;-72
2023/12/30 09:32:06;;;;;;;1.15;1.10;;;;;;;;;;5036522;28;20035;-73
2023/12/30 09:34:31;;;;;;;0.60;0.60;;;;;;;;;;5055234;28;20040;-74
2023/12/30 09:36:56;;;;;;;1.20;1.10;;;;;;;;;;5034720;28;20040;-73
2023/12/30 09:39:22;;;;;;;1.38;1.27;;;;;;;;;;5018293;28;20033;-73
2023/12/30 09:41:47;;;;;;;1.15;0.80;;;;;;;;;;5034842;28;20035;-73
2023/12/30 09:44:13;;;;;;;1.40;1.30;;;;;;;;;;5035077;28;20474;-73
2023/12/30 09:46:40;;;;;;;1.48;1.38;;;;;;;;;;5052913;28;20047;-73
2023/12/30 09:49:06;;;;;;;0.63;0.63;;;;;;;;;;5035172;28;20481;-73
2023/12/30 09:51:32;;;;;;;1.60;1.33;;;;;;;;;;5052896;28;20098;-73
2023/12/30 09:53:58;;;;;;;1.13;0.57;;;;;;;;;;5052802;28;20082;-73
2023/12/30 09:56:24;;;;;;;1.70;1.60;;;;;;;;;;5035005;28;20017;-73
2023/12/30 09:58:50;;;;;;;1.60;1.50;;;;;;;;;;5052282;28;20075;-73
2023/12/30 10:01:16;;;;;;;2.25;1.45;;;;;;;;;;5052375;28;20033;-73
2023/12/30 10:03:41;;;;;;;1.38;1.15;;;;;;;;;;5052402;28;20033;-73
2023/12/30 10:06:08;;;;;;;2.58;1.52;;;;;;;;;;5052294;28;20033;-73
2023/12/30 10:08:34;;;;;;;2.13;1.80;;;;;;;;;;5034668;28;20029;-74
2023/12/30 10:10:59;;;;;;;1.33;1.17;;;;;;;;;;5053394;28;20053;-73
2023/12/30 10:13:27;;;;;;;1.27;1.17;;;;;;;;;;5053264;28;20029;-74
2023/12/30 10:15:54;;;;;;;1.00;0.90;;;;;;;;;;5018613;28;20033;-74
2023/12/30 10:18:21;;;;;;;1.15;1.05;;;;;;;;;;5035103;28;20064;-74
2023/12/30 10:20:46;;;;;;;1.50;1.15;;;;;;;;;;5053154;28;20041;-74
2023/12/30 10:23:12;;;;;;;1.45;1.25;;;;;;;;;;5035038;28;20086;-74
2023/12/30 10:25:38;;;;;;;1.30;1.20;;;;;;;;;;5052745;28;20037;-74
2023/12/30 10:28:04;;;;;;;1.50;1.15;;;;;;;;;;5052444;28;20031;-73
2023/12/30 10:30:30;;;;;;;1.50;0.88;;;;;;;;;;5034964;28;20033;-73
2023/12/30 10:33:05;;;;;;;1.38;0.93;;;;;;;;;;5053161;28;20387;-73
2023/12/30 10:35:30;;;;;;;1.05;0.90;;;;;;;;;;5034852;28;20041;-73
2023/12/30 10:37:56;;;;;;;1.52;0.93;;;;;;;;;;5052783;28;20028;-73
2023/12/30 10:40:22;;;;;;;1.20;1.10;;;;;;;;;;5052705;28;20150;-73
2023/12/30 10:42:47;;;;;;;1.13;0.80;;;;;;;;;;5034906;28;20029;-73
2023/12/30 10:45:14;;;;;;;1.70;1.02;;;;;;;;;;5052818;28;20497;-73
2023/12/30 10:47:43;;;;;;;1.23;0.85;;;;;;;;;;5034531;28;20079;-73
2023/12/30 10:50:09;;;;;;;0.98;0.90;;;;;;;;;;5052476;28;20071;-68
2023/12/30 10:52:51;;;;;;;2.47;1.02;;;;;;;;;;5034974;28;20033;-68
2023/12/30 10:55:17;;;;;;;1.90;1.15;;;;;;;;;;5034978;28;20041;-68
2023/12/30 10:57:56;;;;;;;2.10;1.10;;;;;;;;;;5018354;28;20120;-68
2023/12/30 11:00:23;;;;;;;1.92;1.15;;;;;;;;;;5052490;28;20466;-68
2023/12/30 11:02:49;;;;;;;1.48;1.08;;;;;;;;;;5051925;28;20029;-68
2023/12/30 11:05:18;;;;;;;2.83;1.35;;;;;;;;;;5051514;28;20135;-63
2023/12/30 11:07:44;;;;;;;1.95;1.38;;;;;;;;;;5033823;28;20104;-70
2023/12/30 11:10:19;;;;;;;1.65;1.55;;;;;;;;;;5052127;28;20475;-63
2023/12/30 11:12:45;;;;;;;4.03;2.08;;;;;;;;;;5033923;28;20029;-71
2023/12/30 11:15:32;;;;;;;3.03;2.05;;;;;;;;;;5034671;28;20039;-63
2023/12/30 11:17:58;;;;;;;1.73;1.50;;;;;;;;;;5052636;28;20029;-63
2023/12/30 11:20:24;;;;;;;1.85;1.63;;;;;;;;;;5052693;28;20421;-63
2023/12/30 11:22:56;;;;;;;3.97;2.33;;;;;;;;;;5052511;28;20429;-64
2023/12/30 11:25:31;;;;;;;3.58;2.50;;;;;;;;;;5052310;28;20033;-63
2023/12/30 11:28:10;;;;;;;4.32;3.00;;;;;;;;;;5052104;28;20037;-63
2023/12/30 11:30:36;;;;;;;2.17;1.80;;;;;;;;;;5052538;28;20033;-63
2023/12/30 11:33:01;;;;;;;1.60;1.40;;;;;;;;;;5052482;28;20029;-63
2023/12/30 11:35:27;;;;;;;2.47;1.48;;;;;;;;;;5051786;28;20086;-63
2023/12/30 11:37:56;;;;;;;1.80;1.70;;;;;;;;;;5052113;28;20036;-63
2023/12/30 11:40:23;;;;;;;1.67;1.58;;;;;;;;;;5051038;28;20676;-63
2023/12/30 11:42:52;;;;;;;2.40;1.63;;;;;;;;;;5052262;28;20048;-63
2023/12/30 11:45:18;;;;;;;1.63;1.50;;;;;;;;;;5016848;28;20123;-63
2023/12/30 11:47:47;;;;;;;1.60;1.30;;;;;;;;;;5051855;28;20112;-63
2023/12/30 11:50:13;;;;;;;2.13;1.45;;;;;;;;;;5052058;28;20028;-69
2023/12/30 11:52:43;;;;;;;1.85;1.65;;;;;;;;;;5034124;28;20104;-63
2023/12/30 11:55:08;;;;;;;2.20;1.73;;;;;;;;;;5032590;28;20044;-63
2023/12/30 11:57:36;;;;;;;2.00;1.60;;;;;;;;;;5051609;28;20032;-64
2023/12/30 12:00:01;;;;;;;2.13;1.48;;;;;;;;;;5052848;28;20467;-63
2023/12/30 12:02:34;;;;;;;2.20;1.90;;;;;;;;;;5052747;28;20029;-63
2023/12/30 12:05:00;;;;;;;1.88;1.70;;;;;;;;;;5052173;28;20372;-63
2023/12/30 12:07:26;;;;;;;4.13;3.72;;;;;;;;;;5016221;28;20071;-63
2023/12/30 12:09:52;;;;;;;3.38;2.15;;;;;;;;;;5035394;28;20526;-63
2023/12/30 12:12:21;;;;;;;2.47;2.13;;;;;;;;;;5049097;28;20033;-63
2023/12/30 12:14:48;;;;;;;4.82;2.80;;;;;;;;;;5050025;28;20064;-63
2023/12/30 12:17:13;;;;;;;3.70;3.15;;;;;;;;;;5049811;28;20065;-63
2023/12/30 12:19:39;;;;;;;4.47;4.05;;;;;;;;;;5049955;28;20099;-63
2023/12/30 12:22:05;;;;;;;5.53;4.30;;;;;;;;;;5049986;28;20475;-63
2023/12/30 12:24:30;;;;;;;3.65;3.10;;;;;;;;;;5049894;28;20403;-62
2023/12/30 12:26:56;;;;;;;2.33;2.13;;;;;;;;;;5049663;28;20033;-63
2023/12/30 12:29:21;;;;;;;2.92;1.60;;;;;;;;;;5048286;28;20075;-62
2023/12/30 12:31:48;;;;;;;1.77;1.58;;;;;;;;;;5048279;28;20057;-63
2023/12/30 12:34:23;;;;;;;2.55;1.67;;;;;;;;;;5048419;28;20090;-63
2023/12/30 12:36:49;;;;;;;1.77;1.67;;;;;;;;;;5049761;28;20048;-63
2023/12/30 12:39:14;;;;;;;2.50;1.70;;;;;;;;;;5050436;28;20029;-63
2023/12/30 12:41:39;;;;;;;2.72;2.03;;;;;;;;;;5049972;28;20108;-63
2023/12/30 12:44:05;;;;;;;4.07;2.17;;;;;;;;;;5049885;28;20387;-63
2023/12/30 12:46:30;;;;;;;4.72;2.50;;;;;;;;;;5049354;28;20100;-62
2023/12/30 12:48:57;;;;;;;3.70;2.47;;;;;;;;;;5063097;28;20481;-63
2023/12/30 12:51:23;;;;;;;2.90;2.28;;;;;;;;;;5054152;28;20460;-63
2023/12/30 12:53:50;;;;;;;2.35;2.17;;;;;;;;;;5056817;28;20033;-63
2023/12/30 12:56:15;;;;;;;3.58;2.13;;;;;;;;;;5074427;28;20056;-69
2023/12/30 12:58:42;;;;;;;2.90;2.42;;;;;;;;;;5074474;28;20507;-69
2023/12/30 13:01:07;;;;;;;2.75;2.40;;;;;;;;;;5074520;28;20028;-69
2023/12/30 13:03:33;;;;;;;4.45;2.80;;;;;;;;;;5074523;28;20359;-69
2023/12/30 13:06:10;;;;;;;3.67;2.75;;;;;;;;;;5074136;28;20036;-69
2023/12/30 13:08:36;;;;;;;5.57;4.05;;;;;;;;;;5074261;28;20428;-70
2023/12/30 13:11:02;;;;;;;3.03;2.60;;;;;;;;;;5074120;28;20048;-72
2023/12/30 13:13:27;;;;;;;7.18;3.80;;;;;;;;;;5074654;28;20461;-72
2023/12/30 13:15:55;;;;;;;5.20;3.40;;;;;;;;;;5074185;28;20123;-64
2023/12/30 13:18:21;;;;;;;4.80;3.03;;;;;;;;;;5056757;28;20440;-64
2023/12/30 13:20:47;;;;;;;4.80;3.45;;;;;;;;;;5074361;28;20785;-64
2023/12/30 13:23:14;;;;;;;6.57;3.70;;;;;;;;;;5074511;28;20116;-64
2023/12/30 13:25:39;;;;;;;6.90;4.20;;;;;;;;;;5074457;28;20056;-64
2023/12/30 13:28:05;;;;;;;6.75;4.10;;;;;;;;;;5056379;28;20071;-64
2023/12/30 13:30:31;;;;;;;9.45;5.10;;;;;;;;;;5056821;28;20021;-63
2023/12/30 13:32:59;;;;;;;7.20;4.93;;;;;;;;;;5074040;28;20050;-63
2023/12/30 13:35:33;;;;;;;7.32;4.53;;;;;;;;;;5073389;28;20087;-71
2023/12/30 13:37:59;;;;;;;7.38;5.18;;;;;;;;;;5056050;28;20401;-71
2023/12/30 13:40:25;;;;;;;8.27;5.00;;;;;;;;;;5074405;28;20103;-71
2023/12/30 13:42:53;;;;;;;8.30;5.20;;;;;;;;;;5074375;28;20064;-71
2023/12/30 13:45:19;;;;;;;6.43;4.68;;;;;;;;;;5056161;28;20039;-71
2023/12/30 13:50:19;;;;;;;8.60;6.68;;;;;;;;;;5073615;28;20028;-72
2023/12/30 13:52:46;;;;;;;12.02;8.48;;;;;;;;;;5073855;28;20032;-72
2023/12/30 13:55:16;;;;;;;13.90;8.82;;;;;;;;;;5073900;28;20028;-72
2023/12/30 13:57:42;;;;;;;11.18;8.18;;;;;;;;;;5073492;28;20386;-73
2023/12/30 14:00:08;;;;;;;11.30;7.68;;;;;;;;;;5073905;28;20016;-72
2023/12/30 14:02:38;;;;;;;8.50;6.55;;;;;;;;;;5073082;28;20039;-72
2023/12/30 14:05:07;;;;;;;9.75;6.70;;;;;;;;;;5073769;28;20514;-72
2023/12/30 14:07:32;;;;;;;9.55;6.10;;;;;;;;;;5054421;28;20190;-72
2023/12/30 14:10:06;;;;;;;7.63;5.82;;;;;;;;;;5073798;28;20564;-72
2023/12/30 14:12:32;;;;;;;5.93;4.90;;;;;;;;;;5073107;28;20056;-73
2023/12/30 14:15:05;;;;;;;6.68;5.25;;;;;;;;;;5054679;28;20505;-73
2023/12/30 14:17:33;;;;;;;5.00;4.40;;;;;;;;;;5072889;28;20028;-73
2023/12/30 14:20:04;;;;;;;6.55;4.93;;;;;;;;;;5075309;28;20509;-73
2023/12/30 14:22:29;;;;;;;7.57;5.13;;;;;;;;;;5075385;28;20036;-73
2023/12/30 14:24:56;;;;;;;6.72;5.00;;;;;;;;;;5074333;28;20073;-73
2023/12/30 14:27:22;;;;;;;9.60;5.63;;;;;;;;;;5072823;28;20038;-73
2023/12/30 14:29:50;;;;;;;8.15;5.78;;;;;;;;;;5055291;28;20545;-73
2023/12/30 14:32:16;;;;;;;7.85;4.88;;;;;;;;;;5072523;28;20111;-73
2023/12/30 14:34:42;;;;;;;6.70;5.05;;;;;;;;;;5072924;28;20174;-73
2023/12/30 14:37:08;;;;;;;6.38;4.75;;;;;;;;;;5072432;28;20036;-71
2023/12/30 14:39:34;;;;;;;10.68;5.90;;;;;;;;;;5072341;28;20036;-71
2023/12/30 14:42:00;;;;;;;6.25;4.88;;;;;;;;;;5072605;28;20043;-71
2023/12/30 14:44:26;;;;;;;6.55;5.05;;;;;;;;;;5072539;28;20028;-71